Terminal Aerodrome Forecast
Issued by NWS

Home | Current Version | Previous Version | Text Only | Print | Product List | Glossary On
Versions: 1 2 3 4 5 6 7 8 9 10 11 12 13 14 15
000
FTUS45 KRIW 272327
TAFBPI
TAF
KBPI 272327Z 2800/2824 33018G26KT P6SM VCSH SCT025 BKN060
     FM280200 33012KT P6SM VCSH SCT025 BKN035
     FM280900 34009KT 4SM -SHSN SCT015 BKN025
     FM281400 36014KT P6SM SCT020 BKN035
     FM282200 07014KT P6SM FEW040 SCT060=

USA.gov is the U.S. government's official web portal to all federal, state and local government web resources and services.